Latest  Newer  Older  Last 2 hours slideshow  Last 24 hours slideshow  Refresh every 5 minutes 
Current image  Latest image  Rain/snow radar  Cloud coverage sat images 

All time is UTC (add 2 hours to UTC in wintertime, 3 hours to UTC in DST for Latvia local time)

2021/01/28 01:50 EVRA 280150Z VRB02KT 9999 FEW017 BKN020 OVC028 M00/M02 Q1006 R36/490393 NOSIG
2021/01/28 01:50 EVLA 280150Z AUTO 14004KT 4800 -SN FEW013/// BKN024/// OVC038/// M01/M02 Q1006
2021/01/28 01:50 EVVA 280150Z AUTO VRB01KT 9999 OVC022 00/M02 Q1005
2021/01/28 01:50 EYKA 280150Z VRB04KT 9999 OVC025 M01/M06 Q1007 R08/490493
2021/01/28 01:50 EYPA 280150Z AUTO 13004KT 9999 -UP OVC031/// M00/M03 Q1006
2021/01/28 01:50 EYSA 280150Z AUTO 28004KT 9999NDV OVC021 M02/M05 Q1006 R14L/29//95 R14R/29//95
2021/01/28 01:50 EYVI 280150Z 31007KT 9999 OVC024 M02/M04 Q1005 R01/5/0393 NOSIG
2021/01/27 16:20 EEKA 271620Z 33012KT 5000 -SN BKN013 OVC025 M00/M01 Q1002
2021/01/28 01:50 EEKE 280150Z AUTO 00000KT 9999NDV OVC030 M01/M02 Q1005

2021/01/28 01:50 EETN 280150Z 29008KT 9999 OVC012 M01/M03 Q1003 R08/590393
2021/01/28 01:50 EETU 280150Z AUTO 26010KT 2500 -SN SCT007/// OVC010/// M01/M02 Q1003
   RIGA AIRPORT     EVRA               56 55N  023 58E   10   X     T          6 LV
   LIEPAJA INTL     EVLA        26406  56 31N  021 06E    4   X                8 LV
   VENTPILS         EVVA               57 21N  021 33E    6   X                8 LV
   KAUNAS           EYKA               54 54N  023 55E   77   X     T          6 LT
   PALANGA INTL     EYPA               55 55N  021 03E   10   X                6 LT
   SIAULIAI INTL    EYSA               55 54N  023 24E  135   X     T          6 LT
   VILNIUS INTL     EYVI        26730  54 38N  025 17E  197   X     T          6 LT
   KARDLA           EEKA        26116  58 59N  022 50E    4   X                8 EE
   KURESSAARE       EEKE               58 14N  022 31E    4   X                8 EE
   PARNU            EEPU               58 25N  024 28E   14   X                8 EE
   TALLINN          EETN        26038  59 24N  024 49E   40   X     T          8 EE
   TARTU            EETU               58 19N  026 41E   67   X                8 EE